Time;durP1;ratioP1;P1;durP2;ratioP2;P2;SDS_P1;SDS_P2;PMS_P1;PMS_P2;Temp;Humidity;BMP_temperature;BMP_pressure;BME280_temperature;BME280_humidity;BME280_pressure;Samples;Min_cycle;Max_cycle;Signal;HPM_P1;HPM_P2
2023/05/14 00:01:14;;;;;;;2.20;1.40;;;;;;;12.37;100.00;100490.38;104900;1254;60521;-46
2023/05/14 00:03:41;;;;;;;1.80;1.10;;;;;;;12.32;100.00;100492.92;104689;1254;60845;-51
2023/05/14 00:06:09;;;;;;;4.10;1.50;;;;;;;12.29;100.00;100495.04;104688;1254;76050;-45
2023/05/14 00:08:36;;;;;;;2.70;1.30;;;;;;;12.22;100.00;100502.70;105249;1256;70095;-50
2023/05/14 00:11:03;;;;;;;2.20;1.20;;;;;;;12.18;100.00;100505.21;104629;1253;74784;-44
2023/05/14 00:13:29;;;;;;;2.60;1.10;;;;;;;12.17;100.00;100509.40;104826;1258;62997;-47
2023/05/14 00:15:56;;;;;;;4.00;1.30;;;;;;;12.18;100.00;100509.38;104951;1254;60576;-49
2023/05/14 00:18:23;;;;;;;1.50;1.00;;;;;;;12.19;100.00;100508.96;104965;1254;74321;-46
2023/05/14 00:20:53;;;;;;;2.50;1.40;;;;;;;12.21;100.00;100509.77;105010;1254;67481;-47
2023/05/14 00:23:21;;;;;;;3.70;1.30;;;;;;;12.25;100.00;100509.42;104960;1254;71529;-47
2023/05/14 00:25:47;;;;;;;2.20;1.30;;;;;;;12.28;100.00;100513.09;104987;1259;60569;-45
2023/05/14 00:28:14;;;;;;;2.80;1.20;;;;;;;12.29;100.00;100510.86;104913;1253;62603;-46
2023/05/14 00:30:41;;;;;;;2.00;1.30;;;;;;;12.32;100.00;100508.60;104951;1256;73883;-43
2023/05/14 00:33:08;;;;;;;4.30;1.40;;;;;;;12.34;100.00;100511.55;104878;1260;69938;-45
2023/05/14 00:35:35;;;;;;;6.30;1.50;;;;;;;12.32;100.00;100506.41;105459;1254;73416;-47
2023/05/14 00:38:02;;;;;;;1.70;1.50;;;;;;;12.28;100.00;100510.54;105043;1254;61160;-46
2023/05/14 00:40:29;;;;;;;3.20;1.80;;;;;;;12.23;100.00;100516.52;104803;1254;60518;-49
2023/05/14 00:42:56;;;;;;;5.00;1.80;;;;;;;12.16;100.00;100520.44;104934;1256;73176;-49
2023/05/14 00:45:23;;;;;;;4.40;1.40;;;;;;;12.09;100.00;100521.80;104962;1254;69670;-46
2023/05/14 00:47:50;;;;;;;3.20;1.40;;;;;;;12.06;100.00;100524.63;104824;1257;71167;-48
2023/05/14 00:50:17;;;;;;;2.90;1.40;;;;;;;12.06;100.00;100525.33;109193;1254;61294;-48
2023/05/14 00:52:43;;;;;;;2.80;1.10;;;;;;;12.08;100.00;100525.41;108742;1254;59476;-48
2023/05/14 00:55:11;;;;;;;1.70;1.40;;;;;;;12.12;100.00;100521.14;108952;1254;72875;-48
2023/05/14 00:57:39;;;;;;;6.70;2.20;;;;;;;12.16;100.00;100521.35;109109;1254;67323;-52
2023/05/14 01:00:07;;;;;;;1.70;1.20;;;;;;;12.19;100.00;100516.34;109082;1258;72215;-52
2023/05/14 01:02:34;;;;;;;6.00;1.20;;;;;;;12.22;100.00;100518.38;108841;1260;62730;-48
2023/05/14 01:05:01;;;;;;;4.10;0.90;;;;;;;12.24;100.00;100513.98;109195;1256;62299;-47
2023/05/14 01:07:33;;;;;;;1.70;1.10;;;;;;;12.26;100.00;100512.64;108976;1252;75569;-51
2023/05/14 01:10:14;;;;;;;1.70;1.00;;;;;;;12.26;100.00;100512.98;108928;1254;67276;-47
2023/05/14 01:13:06;;;;;;;7.00;1.10;;;;;;;12.26;100.00;100510.80;108921;1254;75621;-48
2023/05/14 01:15:33;;;;;;;7.70;1.50;;;;;;;12.25;100.00;100514.64;108963;1254;59680;-47
2023/05/14 01:18:10;;;;;;;3.80;1.30;;;;;;;12.21;100.00;100513.92;109084;1251;62651;-50
2023/05/14 01:20:37;;;;;;;4.50;1.60;;;;;;;12.18;100.00;100520.19;109055;1254;75216;-48
2023/05/14 01:23:03;;;;;;;1.90;1.20;;;;;;;12.14;100.00;100519.45;109052;1254;65227;-51
2023/05/14 01:25:30;;;;;;;1.40;1.10;;;;;;;12.10;100.00;100525.36;108991;1254;72513;-46
2023/05/14 01:28:14;;;;;;;6.20;1.70;;;;;;;12.07;100.00;100529.83;108868;1254;60437;-46
2023/05/14 01:31:03;;;;;;;2.00;1.50;;;;;;;12.02;100.00;100528.94;108191;1254;59416;-49
2023/05/14 01:33:30;;;;;;;1.90;1.30;;;;;;;11.98;100.00;100526.25;108561;1257;75760;-49
2023/05/14 01:35:57;;;;;;;2.00;0.90;;;;;;;11.95;100.00;100524.02;104759;1259;67407;-44
2023/05/14 01:38:24;;;;;;;3.40;1.10;;;;;;;11.92;100.00;100522.17;104664;1254;72398;-45
2023/05/14 01:40:50;;;;;;;4.70;1.20;;;;;;;11.90;100.00;100523.15;104486;1262;62087;-45
2023/05/14 01:43:17;;;;;;;1.90;1.00;;;;;;;11.88;100.00;100519.27;104799;1260;60925;-45
2023/05/14 01:45:44;;;;;;;2.40;1.20;;;;;;;11.88;100.00;100520.38;104807;1259;73766;-46
2023/05/14 01:48:11;;;;;;;2.20;1.20;;;;;;;11.85;100.00;100517.96;104630;1255;68135;-44
2023/05/14 01:50:38;;;;;;;3.70;1.40;;;;;;;11.82;100.00;100516.47;104821;1257;74233;-49
2023/05/14 01:53:05;;;;;;;1.60;1.30;;;;;;;11.79;100.00;100510.48;104902;1254;62651;-50
2023/05/14 01:55:32;;;;;;;3.30;1.60;;;;;;;11.78;100.00;100510.17;104931;1260;61773;-49
2023/05/14 01:57:58;;;;;;;6.40;1.40;;;;;;;11.75;100.00;100515.84;104930;1254;75595;-48
2023/05/14 02:00:25;;;;;;;3.00;1.40;;;;;;;11.66;100.00;100511.69;104933;1255;70059;-47
2023/05/14 02:02:52;;;;;;;1.90;1.20;;;;;;;11.60;100.00;100510.34;104798;1256;75141;-49
2023/05/14 02:05:20;;;;;;;5.90;1.60;;;;;;;11.55;100.00;100504.77;105298;1258;62497;-47
2023/05/14 02:07:46;;;;;;;2.70;1.20;;;;;;;11.52;100.00;100507.98;104794;1256;61509;-50
2023/05/14 02:10:14;;;;;;;3.40;1.40;;;;;;;11.47;100.00;100509.77;105169;1257;74957;-48
2023/05/14 02:12:41;;;;;;;4.10;1.10;;;;;;;11.41;100.00;100508.04;105087;1254;70487;-46
2023/05/14 02:15:09;;;;;;;1.70;1.10;;;;;;;11.35;100.00;100505.22;104850;1257;74757;-48
2023/05/14 02:17:36;;;;;;;2.70;1.30;;;;;;;11.33;100.00;100504.23;105639;1254;60530;-50
2023/05/14 02:20:04;;;;;;;2.40;1.40;;;;;;;11.31;100.00;100504.65;104958;1252;60433;-47
2023/05/14 02:22:31;;;;;;;1.30;0.90;;;;;;;11.29;100.00;100504.39;104925;1252;74781;-47
2023/05/14 02:24:57;;;;;;;3.60;1.50;;;;;;;11.26;100.00;100501.63;105044;1257;67096;-47
2023/05/14 02:27:24;;;;;;;2.20;1.30;;;;;;;11.23;100.00;100499.77;104981;1260;72188;-48
2023/05/14 02:29:51;;;;;;;3.20;1.70;;;;;;;11.21;100.00;100497.16;105004;1260;61427;-49
2023/05/14 02:32:18;;;;;;;4.10;2.00;;;;;;;11.19;100.00;100494.71;104880;1254;60588;-47
2023/05/14 02:34:45;;;;;;;3.00;1.40;;;;;;;11.15;100.00;100493.63;104918;1259;75784;-48
2023/05/14 02:37:11;;;;;;;1.50;1.20;;;;;;;11.10;100.00;100494.52;104939;1260;69999;-47
2023/05/14 02:39:38;;;;;;;4.30;1.80;;;;;;;11.07;100.00;100493.22;104869;1260;74647;-45
2023/05/14 02:42:05;;;;;;;3.30;1.60;;;;;;;11.05;100.00;100496.15;104895;1260;60550;-49
2023/05/14 02:44:32;;;;;;;2.80;2.00;;;;;;;11.04;100.00;100495.87;106195;1254;61479;-49
2023/05/14 02:46:59;;;;;;;3.00;2.30;;;;;;;11.02;100.00;100493.77;104761;1260;72426;-48
2023/05/14 02:49:26;;;;;;;3.70;1.70;;;;;;;11.01;100.00;100496.14;105113;1259;69470;-49
2023/05/14 02:51:55;;;;;;;3.50;1.60;;;;;;;11.00;100.00;100498.67;104641;1257;72519;-48
2023/05/14 02:54:22;;;;;;;2.60;1.30;;;;;;;10.99;100.00;100503.20;104688;1258;64421;-49
2023/05/14 02:56:49;;;;;;;3.20;1.90;;;;;;;10.98;100.00;100498.02;104961;1259;60789;-48
2023/05/14 02:59:16;;;;;;;3.90;2.40;;;;;;;10.97;100.00;100493.77;104960;1259;75920;-48
2023/05/14 03:01:43;;;;;;;4.50;3.00;;;;;;;10.99;100.00;100494.92;104904;1260;69233;-46
2023/05/14 03:04:10;;;;;;;5.00;2.40;;;;;;;11.03;100.00;100498.23;106034;1257;73317;-46
2023/05/14 03:06:37;;;;;;;3.50;2.90;;;;;;;11.04;100.00;100499.42;104870;1256;61672;-49
2023/05/14 03:09:04;;;;;;;5.40;3.10;;;;;;;11.03;100.00;100500.92;105001;1259;60380;-50
2023/05/14 03:11:30;;;;;;;8.10;3.80;;;;;;;11.04;100.00;100502.32;104871;1257;74720;-45
2023/05/14 03:13:57;;;;;;;7.00;3.60;;;;;;;11.07;100.00;100501.84;104875;1260;70085;-47
2023/05/14 03:16:24;;;;;;;6.90;3.90;;;;;;;11.07;100.00;100501.11;104927;1254;73362;-46
2023/05/14 03:18:51;;;;;;;6.70;4.90;;;;;;;11.08;100.00;100508.24;104709;1255;60821;-49
2023/05/14 03:21:17;;;;;;;6.90;3.90;;;;;;;11.11;100.00;100509.59;106891;1259;62235;-46
2023/05/14 03:23:44;;;;;;;11.00;4.10;;;;;;;11.10;100.00;100509.45;104790;1252;75962;-47
2023/05/14 03:26:11;;;;;;;8.60;4.10;;;;;;;11.11;100.00;100507.26;105062;1254;68246;-49
2023/05/14 03:28:39;;;;;;;4.50;3.10;;;;;;;11.13;100.00;100507.90;104768;1259;72590;-48
2023/05/14 03:31:06;;;;;;;5.70;3.10;;;;;;;11.15;100.00;100504.91;104824;1257;62075;-50
2023/05/14 03:33:33;;;;;;;4.90;2.90;;;;;;;11.19;100.00;100509.63;104717;1254;61619;-45
2023/05/14 03:35:59;;;;;;;8.10;3.30;;;;;;;11.25;100.00;100512.79;104842;1254;74812;-48
2023/05/14 03:38:26;;;;;;;5.20;2.20;;;;;;;11.31;100.00;100519.77;104760;1254;68072;-47
2023/05/14 03:40:53;;;;;;;2.50;1.30;;;;;;;11.33;100.00;100518.92;104887;1254;71504;-48
2023/05/14 03:43:20;;;;;;;3.50;1.80;;;;;;;11.35;100.00;100520.11;104726;1257;61837;-48
2023/05/14 03:45:51;;;;;;;4.70;1.60;;;;;;;11.41;100.00;100522.04;105066;1260;60976;-47
2023/05/14 03:48:18;;;;;;;1.80;1.20;;;;;;;11.48;100.00;100522.52;109087;1255;75294;-49
2023/05/14 03:50:45;;;;;;;2.50;1.50;;;;;;;11.56;100.00;100526.67;109031;1254;68839;-49
2023/05/14 03:53:12;;;;;;;2.50;1.50;;;;;;;11.65;100.00;100529.73;109191;1254;73808;-49
2023/05/14 03:55:39;;;;;;;1.60;1.20;;;;;;;11.73;100.00;100529.55;109045;1253;62638;-49
2023/05/14 03:58:12;;;;;;;3.10;1.40;;;;;;;11.84;100.00;100529.68;109032;1253;61336;-49
2023/05/14 04:00:40;;;;;;;2.20;1.20;;;;;;;11.94;100.00;100532.50;108917;1254;72320;-50
2023/05/14 04:03:08;;;;;;;3.40;2.00;;;;;;;12.04;100.00;100533.70;109067;1254;70035;-49
2023/05/14 04:05:35;;;;;;;6.80;1.70;;;;;;;12.13;100.00;100538.02;109039;1253;73122;-49
2023/05/14 04:08:02;;;;;;;4.70;1.80;;;;;;;12.21;100.00;100537.12;107012;1254;63636;-48
2023/05/14 04:10:29;;;;;;;3.80;1.30;;;;;;;12.27;100.00;100533.63;104797;1260;60398;-48
2023/05/14 04:12:58;;;;;;;3.60;1.90;;;;;;;12.32;100.00;100536.48;105007;1259;75093;-48
2023/05/14 04:15:29;;;;;;;3.50;1.30;;;;;;;12.38;100.00;100541.08;104835;1254;67546;-48
2023/05/14 04:17:56;;;;;;;1.80;1.40;;;;;;;12.42;100.00;100544.52;109096;1254;74065;-50
2023/05/14 04:20:23;;;;;;;4.00;1.50;;;;;;;12.45;100.00;100545.96;109094;1254;61010;-47
2023/05/14 04:22:50;;;;;;;3.50;1.50;;;;;;;12.48;100.00;100545.67;107663;1253;61080;-47
2023/05/14 04:25:17;;;;;;;4.80;1.90;;;;;;;12.52;100.00;100545.84;104736;1260;75941;-48
2023/05/14 04:27:44;;;;;;;2.80;1.50;;;;;;;12.58;100.00;100548.84;107535;1254;68690;-47
2023/05/14 04:30:11;;;;;;;2.20;1.50;;;;;;;12.62;100.00;100544.33;104945;1254;72692;-49
2023/05/14 04:32:38;;;;;;;3.00;1.40;;;;;;;12.69;100.00;100545.63;104934;1255;64650;-49
2023/05/14 04:35:05;;;;;;;2.70;1.50;;;;;;;12.77;100.00;100544.73;105025;1254;62159;-48
2023/05/14 04:37:32;;;;;;;2.60;1.40;;;;;;;12.85;100.00;100545.42;104952;1254;74874;-48
2023/05/14 04:39:59;;;;;;;2.70;1.50;;;;;;;12.95;100.00;100543.92;104959;1259;66753;-48
2023/05/14 04:42:25;;;;;;;4.20;1.20;;;;;;;13.05;100.00;100546.02;104827;1254;74896;-47
2023/05/14 04:44:52;;;;;;;1.40;1.00;;;;;;;13.14;100.00;100547.92;105026;1254;61111;-46
2023/05/14 04:47:19;;;;;;;2.40;1.10;;;;;;;13.25;100.00;100550.32;104891;1254;60392;-49
2023/05/14 04:49:46;;;;;;;4.40;1.70;;;;;;;13.35;100.00;100552.17;104878;1254;75235;-47
2023/05/14 04:52:13;;;;;;;2.90;1.00;;;;;;;13.45;100.00;100551.89;105464;1255;68674;-49
2023/05/14 04:54:40;;;;;;;1.80;1.30;;;;;;;13.55;100.00;100548.35;104942;1254;71521;-49
2023/05/14 04:57:07;;;;;;;3.50;1.60;;;;;;;13.66;100.00;100549.98;104860;1254;61295;-49
2023/05/14 04:59:33;;;;;;;1.80;1.00;;;;;;;13.78;100.00;100551.00;105018;1254;60487;-47
2023/05/14 05:02:00;;;;;;;3.30;1.40;;;;;;;13.90;100.00;100552.94;105082;1255;74105;-50
2023/05/14 05:04:27;;;;;;;1.80;1.50;;;;;;;14.01;100.00;100555.08;104890;1254;69502;-47
2023/05/14 05:06:54;;;;;;;1.40;1.30;;;;;;;14.14;100.00;100553.75;104882;1253;73031;-48
2023/05/14 05:09:20;;;;;;;1.90;1.20;;;;;;;14.27;100.00;100558.15;105088;1254;60517;-48
2023/05/14 05:11:47;;;;;;;2.80;1.40;;;;;;;14.40;100.00;100554.98;104973;1254;60446;-50
2023/05/14 05:14:14;;;;;;;1.80;1.10;;;;;;;14.52;100.00;100558.13;104973;1260;74985;-49
2023/05/14 05:16:41;;;;;;;3.10;0.90;;;;;;;14.65;100.00;100566.69;104874;1255;70129;-47
2023/05/14 05:19:07;;;;;;;2.50;1.50;;;;;;;14.78;100.00;100563.83;104850;1258;73443;-46
2023/05/14 05:21:35;;;;;;;2.80;0.80;;;;;;;14.90;100.00;100556.65;105259;1254;60468;-46
2023/05/14 05:24:02;;;;;;;2.30;1.30;;;;;;;15.02;100.00;100560.52;104866;1254;60433;-48
2023/05/14 05:26:29;;;;;;;3.70;1.40;;;;;;;15.14;100.00;100562.04;104891;1261;72924;-48
2023/05/14 05:31:27;;;;;;;2.20;1.30;;;;;;;15.40;100.00;100568.08;101819;1296;599798;-47
2023/05/14 05:33:53;;;;;;;5.10;1.90;;;;;;;15.51;100.00;100575.02;104129;1269;59343;-49
2023/05/14 05:36:20;;;;;;;4.80;1.70;;;;;;;15.63;100.00;100569.83;103855;1271;59212;-50
2023/05/14 05:38:47;;;;;;;3.30;1.50;;;;;;;15.76;100.00;100572.02;104026;1269;71992;-48
2023/05/14 05:41:13;;;;;;;4.80;1.40;;;;;;;15.88;100.00;100569.14;103847;1271;69936;-50
2023/05/14 05:43:40;;;;;;;2.50;1.70;;;;;;;16.00;100.00;100567.72;103998;1271;72100;-47
2023/05/14 05:46:07;;;;;;;1.40;1.20;;;;;;;16.13;100.00;100569.15;104087;1268;165503;-46
2023/05/14 05:48:34;;;;;;;2.80;1.40;;;;;;;16.25;100.00;100573.30;103977;1266;62199;-49
2023/05/14 05:51:00;;;;;;;3.30;1.50;;;;;;;16.38;100.00;100572.91;103953;1265;73871;-49
2023/05/14 05:53:27;;;;;;;2.80;1.10;;;;;;;16.50;100.00;100576.02;104255;1265;65232;-48
2023/05/14 05:55:54;;;;;;;3.50;1.00;;;;;;;16.62;100.00;100573.86;103809;1268;71832;-49
2023/05/14 05:58:20;;;;;;;2.50;1.10;;;;;;;16.74;100.00;100582.36;103866;1265;62333;-50
2023/05/14 06:00:47;;;;;;;1.20;0.90;;;;;;;16.86;100.00;100583.08;104066;1262;62897;-49
2023/05/14 06:03:14;;;;;;;2.50;1.00;;;;;;;16.98;100.00;100579.82;104220;1262;75489;-50
2023/05/14 06:05:41;;;;;;;1.20;0.90;;;;;;;17.09;100.00;100580.77;104236;1262;65931;-46
2023/05/14 06:08:08;;;;;;;1.70;1.20;;;;;;;17.20;100.00;100583.13;104566;1266;73377;-49
2023/05/14 06:10:36;;;;;;;2.10;0.90;;;;;;;17.33;100.00;100587.95;104507;1263;59765;-47
2023/05/14 06:13:03;;;;;;;1.20;1.00;;;;;;;17.46;100.00;100588.61;104326;1263;60791;-46
2023/05/14 06:15:29;;;;;;;1.00;0.80;;;;;;;17.57;100.00;100591.67;104348;1262;75184;-48
2023/05/14 06:17:56;;;;;;;1.80;0.90;;;;;;;17.68;100.00;100594.79;104396;1262;68395;-47
2023/05/14 06:20:23;;;;;;;4.40;0.70;;;;;;;17.79;100.00;100592.64;104245;1262;72315;-52
2023/05/14 06:22:50;;;;;;;1.30;0.90;;;;;;;17.91;100.00;100596.02;104242;1265;59735;-46
2023/05/14 06:25:17;;;;;;;5.10;0.90;;;;;;;18.02;100.00;100596.36;104422;1265;60204;-47
2023/05/14 06:27:44;;;;;;;2.70;0.80;;;;;;;18.12;100.00;100594.84;104400;1262;73609;-47
2023/05/14 06:30:11;;;;;;;1.40;0.70;;;;;;;18.21;100.00;100592.77;104419;1265;66782;-48
2023/05/14 06:32:38;;;;;;;0.80;0.70;;;;;;;18.30;100.00;100592.58;104260;1262;75299;-49
2023/05/14 06:35:05;;;;;;;2.20;0.70;;;;;;;18.39;100.00;100592.69;104216;1261;62301;-51
2023/05/14 06:37:32;;;;;;;1.80;0.60;;;;;;;18.48;100.00;100591.66;104377;1265;61489;-50
2023/05/14 06:39:59;;;;;;;3.40;0.60;;;;;;;18.58;100.00;100586.84;104445;1262;72114;-49
2023/05/14 06:42:26;;;;;;;2.00;0.70;;;;;;;18.66;100.00;100585.73;105479;1265;67629;-49
2023/05/14 06:44:53;;;;;;;0.70;0.60;;;;;;;18.75;100.00;100586.55;104377;1263;72983;-48
2023/05/14 06:47:20;;;;;;;1.40;0.70;;;;;;;18.84;100.00;100585.02;104411;1265;60105;-49
2023/05/14 06:49:47;;;;;;;1.00;0.70;;;;;;;18.93;100.00;100589.66;108525;1262;59388;-51
2023/05/14 06:52:14;;;;;;;1.00;0.70;;;;;;;19.03;100.00;100593.02;108484;1262;72355;-51
2023/05/14 06:54:40;;;;;;;2.80;0.70;;;;;;;19.12;100.00;100589.05;108578;1262;66926;-51
2023/05/14 06:57:07;;;;;;;2.20;0.60;;;;;;;19.21;100.00;100589.90;108458;1262;73327;-48
2023/05/14 06:59:33;;;;;;;2.30;0.70;;;;;;;19.30;100.00;100596.50;107826;1263;61465;-51
2023/05/14 07:02:01;;;;;;;2.60;0.80;;;;;;;19.39;100.00;100594.98;104227;1262;60767;-50
2023/05/14 07:04:28;;;;;;;3.00;0.70;;;;;;;19.45;100.00;100592.16;108539;1262;73860;-51
2023/05/14 07:06:54;;;;;;;1.50;0.70;;;;;;;19.51;100.00;100592.86;108552;1262;69309;-52
2023/05/14 07:09:21;;;;;;;1.10;0.70;;;;;;;19.56;100.00;100591.54;108421;1262;71445;-51
2023/05/14 07:11:48;;;;;;;1.20;0.90;;;;;;;19.62;100.00;100593.33;108470;1262;62604;-50
2023/05/14 07:14:14;;;;;;;4.60;0.70;;;;;;;19.67;100.00;100589.88;108446;1262;60678;-52
2023/05/14 07:16:41;;;;;;;3.40;0.70;;;;;;;19.72;100.00;100585.49;108420;1268;71090;-50
2023/05/14 07:19:08;;;;;;;0.70;0.70;;;;;;;19.80;100.00;100586.40;108472;1262;66537;-51
2023/05/14 07:21:35;;;;;;;1.80;0.80;;;;;;;19.89;100.00;100581.15;108460;1267;74833;-50
2023/05/14 07:24:01;;;;;;;2.60;0.70;;;;;;;19.98;100.00;100582.14;108420;1262;60793;-52
2023/05/14 07:26:29;;;;;;;1.80;0.70;;;;;;;20.06;100.00;100576.93;108544;1262;59760;-51
2023/05/14 07:28:56;;;;;;;0.90;0.70;;;;;;;20.15;100.00;100575.22;104969;1262;72107;-50
2023/05/14 07:31:22;;;;;;;2.90;0.70;;;;;;;20.24;100.00;100577.42;104198;1266;69023;-49
2023/05/14 07:33:49;;;;;;;0.80;0.60;;;;;;;20.33;100.00;100572.52;104264;1263;72310;-49
2023/05/14 07:36:17;;;;;;;2.00;0.60;;;;;;;20.40;100.00;100569.13;104378;1263;60389;-49
2023/05/14 07:38:48;;;;;;;1.50;0.70;;;;;;;20.48;100.00;100563.80;106922;1268;60300;-49
2023/05/14 07:41:14;;;;;;;0.60;0.60;;;;;;;20.55;100.00;100560.70;104347;1262;73254;-50
2023/05/14 07:43:41;;;;;;;0.70;0.60;;;;;;;20.62;100.00;100558.82;104063;1263;68346;-51
2023/05/14 07:46:08;;;;;;;1.10;0.70;;;;;;;20.69;100.00;100557.58;103992;1266;73256;-51
2023/05/14 07:48:35;;;;;;;0.60;0.50;;;;;;;20.75;100.00;100559.29;104315;1263;60166;-49
2023/05/14 07:51:01;;;;;;;2.00;0.50;;;;;;;20.82;100.00;100554.42;104014;1263;62101;-49
2023/05/14 07:53:28;;;;;;;2.30;0.50;;;;;;;20.88;100.00;100556.62;104524;1259;75540;-49
2023/05/14 07:55:55;;;;;;;0.60;0.50;;;;;;;20.96;100.00;100552.58;104798;1257;66200;-49
2023/05/14 07:58:22;;;;;;;0.90;0.80;;;;;;;21.02;100.00;100554.07;104874;1254;71724;-50
2023/05/14 08:00:49;;;;;;;0.60;0.50;;;;;;;21.09;100.00;100551.14;104841;1254;61674;-49
2023/05/14 08:03:16;;;;;;;1.60;0.60;;;;;;;21.15;100.00;100552.85;104706;1254;59725;-52
2023/05/14 08:05:43;;;;;;;1.40;0.40;;;;;;;21.21;100.00;100543.52;104676;1254;74371;-51
2023/05/14 08:08:09;;;;;;;1.60;0.50;;;;;;;21.27;100.00;100541.91;104821;1254;68798;-52
2023/05/14 08:10:36;;;;;;;1.20;0.50;;;;;;;21.34;100.00;100538.44;104649;1260;72231;-50
2023/05/14 08:13:03;;;;;;;1.00;0.70;;;;;;;21.39;100.00;100526.10;104350;1259;62975;-52
2023/05/14 08:15:30;;;;;;;1.00;0.60;;;;;;;21.44;100.00;100528.61;104640;1259;62286;-50
2023/05/14 08:18:02;;;;;;;0.60;0.60;;;;;;;21.51;100.00;100528.09;104880;1256;75157;-52
2023/05/14 08:20:29;;;;;;;1.10;0.50;;;;;;;21.58;100.00;100521.64;104829;1259;67658;-50
2023/05/14 08:22:57;;;;;;;0.60;0.50;;;;;;;21.65;100.00;100519.94;104721;1256;71735;-51
2023/05/14 08:25:23;;;;;;;0.60;0.60;;;;;;;21.71;100.00;100510.52;105423;1256;61245;-51
2023/05/14 08:27:50;;;;;;;0.80;0.60;;;;;;;21.78;100.00;100503.73;105084;1259;61467;-50
2023/05/14 08:30:17;;;;;;;0.80;0.60;;;;;;;21.84;100.00;100503.91;105165;1257;74281;-50
2023/05/14 08:32:44;;;;;;;0.90;0.70;;;;;;;21.88;100.00;100501.94;105044;1262;65773;-51
2023/05/14 08:35:10;;;;;;;0.90;0.70;;;;;;;21.90;100.00;100496.30;104829;1256;72383;-50
2023/05/14 08:37:37;;;;;;;1.10;0.70;;;;;;;21.94;100.00;100486.49;105137;1259;60647;-51
2023/05/14 08:40:06;;;;;;;1.00;0.60;;;;;;;22.02;100.00;100478.71;105026;1267;61076;-52
2023/05/14 08:42:33;;;;;;;4.00;0.60;;;;;;;22.12;100.00;100480.00;105182;1258;73419;-51
2023/05/14 08:45:01;;;;;;;0.90;0.60;;;;;;;22.22;100.00;100478.60;104883;1256;65793;-50
2023/05/14 08:47:31;;;;;;;1.90;0.60;;;;;;;22.28;100.00;100470.80;104644;1257;74573;-50
2023/05/14 08:50:03;;;;;;;0.90;0.60;;;;;;;22.33;100.00;100472.62;104835;1258;60639;-48
2023/05/14 08:52:30;;;;;;;1.10;0.50;;;;;;;22.36;100.00;100471.59;105563;1260;59581;-49
2023/05/14 08:54:58;;;;;;;2.70;0.60;;;;;;;22.41;100.00;100469.11;104876;1257;71905;-50
2023/05/14 08:57:25;;;;;;;1.30;0.60;;;;;;;22.46;100.00;100462.46;104917;1254;69134;-52
2023/05/14 08:59:52;;;;;;;2.80;0.50;;;;;;;22.52;100.00;100464.55;104931;1260;74276;-47
2023/05/14 09:02:23;;;;;;;0.80;0.50;;;;;;;22.55;100.00;100456.93;104701;1259;60634;-50
2023/05/14 09:04:55;;;;;;;2.80;0.60;;;;;;;22.55;100.00;100452.95;105685;1258;62973;-51
2023/05/14 09:07:22;;;;;;;5.20;0.70;;;;;;;22.52;100.00;100448.59;104997;1257;71584;-49
2023/05/14 09:09:50;;;;;;;1.60;0.70;;;;;;;22.51;100.00;100441.78;105044;1257;67791;-52
2023/05/14 09:12:17;;;;;;;1.60;0.60;;;;;;;22.52;100.00;100437.24;104591;1256;72503;-49
2023/05/14 09:14:44;;;;;;;2.70;1.00;;;;;;;22.56;100.00;100433.39;104783;1262;59718;-51
2023/05/14 09:17:11;;;;;;;1.50;0.60;;;;;;;22.64;100.00;100428.70;104885;1265;59734;-53
2023/05/14 09:19:42;;;;;;;0.80;0.80;;;;;;;22.74;100.00;100424.96;104940;1259;73625;-51
2023/05/14 09:22:14;;;;;;;0.80;0.50;;;;;;;22.83;100.00;100420.99;104545;1256;67026;-49
2023/05/14 09:24:41;;;;;;;4.20;0.70;;;;;;;22.95;100.00;100421.46;104965;1254;73628;-52
2023/05/14 09:27:08;;;;;;;1.20;0.70;;;;;;;23.06;100.00;100409.98;105327;1258;61196;-49
2023/05/14 09:29:36;;;;;;;0.70;0.50;;;;;;;23.14;100.00;100404.30;104890;1259;60929;-48
2023/05/14 09:32:04;;;;;;;2.10;0.60;;;;;;;23.20;100.00;100402.52;104961;1254;72188;-49
2023/05/14 09:34:32;;;;;;;0.90;0.50;;;;;;;23.27;100.00;100401.89;105072;1259;65478;-53
2023/05/14 09:37:01;;;;;;;1.80;0.50;;;;;;;23.34;100.00;100403.61;104814;1267;72331;-50
2023/05/14 09:39:28;;;;;;;1.10;0.50;;;;;;;23.35;100.00;100402.20;105977;1260;61077;-50
2023/05/14 09:41:55;;;;;;;2.10;0.60;;;;;;;23.31;100.00;100397.45;104902;1257;60584;-52
2023/05/14 09:44:22;;;;;;;0.60;0.60;;;;;;;23.27;100.00;100394.17;104870;1260;76217;-48
2023/05/14 09:46:49;;;;;;;1.50;0.60;;;;;;;23.21;100.00;100392.85;105813;1259;69403;-49
2023/05/14 09:49:16;;;;;;;0.50;0.50;;;;;;;23.12;100.00;100389.17;104856;1257;74686;-52
2023/05/14 09:51:42;;;;;;;0.90;0.60;;;;;;;23.03;100.00;100392.00;104952;1259;60563;-51
2023/05/14 09:54:09;;;;;;;1.10;0.60;;;;;;;22.90;100.00;100383.10;104689;1260;61325;-50
2023/05/14 09:56:36;;;;;;;6.00;0.60;;;;;;;22.77;100.00;100378.98;104894;1259;76069;-50
2023/05/14 09:59:03;;;;;;;1.60;0.80;;;;;;;22.64;100.00;100379.30;104882;1258;66181;-51
2023/05/14 10:01:30;;;;;;;1.40;0.50;;;;;;;22.55;100.00;100377.56;104760;1257;73702;-49
2023/05/14 10:03:57;;;;;;;0.60;0.50;;;;;;;22.48;100.00;100377.68;108823;1256;62883;-48
2023/05/14 10:06:26;;;;;;;3.30;0.90;;;;;;;22.41;100.00;100372.21;108925;1256;59108;-50
2023/05/14 10:09:00;;;;;;;1.40;0.50;;;;;;;22.34;100.00;100370.48;108919;1256;76288;-49
2023/05/14 10:11:29;;;;;;;4.10;0.60;;;;;;;22.29;100.00;100367.45;108926;1254;68163;-49
2023/05/14 10:14:17;;;;;;;1.90;0.60;;;;;;;22.20;100.00;100365.63;108879;1254;71481;-51
2023/05/14 10:16:48;;;;;;;0.80;0.50;;;;;;;22.13;100.00;100359.67;108924;1256;61472;-48
2023/05/14 10:19:15;;;;;;;2.10;0.60;;;;;;;22.07;100.00;100357.27;109026;1254;58745;-49
2023/05/14 10:21:55;;;;;;;2.10;0.50;;;;;;;22.03;100.00;100351.10;107363;1258;73879;-50
2023/05/14 10:24:22;;;;;;;2.80;0.40;;;;;;;22.00;100.00;100348.27;104790;1262;65697;-50
2023/05/14 10:26:48;;;;;;;0.60;0.50;;;;;;;21.95;100.00;100348.66;104810;1260;74635;-49
2023/05/14 10:29:15;;;;;;;4.70;0.60;;;;;;;21.88;100.00;100340.09;104509;1258;61462;-50
2023/05/14 10:31:50;;;;;;;2.60;0.50;;;;;;;21.85;100.00;100335.94;104998;1254;61822;-49
2023/05/14 10:34:43;;;;;;;2.70;0.80;;;;;;;21.90;100.00;100338.46;109136;1254;75887;-50
2023/05/14 10:37:11;;;;;;;2.70;0.40;;;;;;;21.99;100.00;100336.48;109147;1256;69997;-50
2023/05/14 10:39:51;;;;;;;2.20;0.50;;;;;;;22.09;100.00;100339.08;108959;1254;71785;-50
2023/05/14 10:42:21;;;;;;;6.70;0.60;;;;;;;22.21;100.00;100335.22;109075;1257;60871;-52
2023/05/14 10:45:08;;;;;;;0.40;0.40;;;;;;;22.32;100.00;100333.36;105281;1256;60364;-49
2023/05/14 10:47:36;;;;;;;2.30;0.50;;;;;;;22.43;100.00;100333.48;104722;1260;73052;-49
2023/05/14 10:50:04;;;;;;;0.70;0.60;;;;;;;22.52;100.00;100334.16;104606;1255;69172;-50
2023/05/14 10:52:30;;;;;;;0.50;0.50;;;;;;;22.59;100.00;100333.71;108202;1254;73195;-52
2023/05/14 10:54:59;;;;;;;0.70;0.40;;;;;;;22.63;100.00;100332.92;105762;1260;61650;-50
2023/05/14 10:57:30;;;;;;;2.10;0.40;;;;;;;22.63;100.00;100331.33;104875;1253;61480;-48
2023/05/14 10:59:58;;;;;;;0.60;0.60;;;;;;;22.62;100.00;100326.84;105581;1257;73982;-50
2023/05/14 11:02:38;;;;;;;4.00;0.50;;;;;;;22.59;100.00;100325.83;105616;1259;67665;-50
2023/05/14 11:05:12;;;;;;;3.70;0.60;;;;;;;22.56;100.00;100324.81;104677;1254;74980;-51
2023/05/14 11:07:40;;;;;;;0.50;0.50;;;;;;;22.52;100.00;100318.95;105302;1254;62206;-50
2023/05/14 11:10:08;;;;;;;3.20;0.60;;;;;;;22.48;100.00;100319.50;105755;1260;61380;-49
2023/05/14 11:12:36;;;;;;;3.00;0.50;;;;;;;22.46;100.00;100319.59;104948;1254;75322;-49
2023/05/14 11:15:10;;;;;;;2.30;0.50;;;;;;;22.46;100.00;100319.89;104612;1257;68063;-48